Time;durP1;ratioP1;P1;durP2;ratioP2;P2;SDS_P1;SDS_P2;PMS_P1;PMS_P2;Temp;Humidity;BMP_temperature;BMP_pressure;BME280_temperature;BME280_humidity;BME280_pressure;Samples;Min_cycle;Max_cycle;Signal;HPM_P1;HPM_P2
2021/01/28 00:00:25;;;;;;;51.33;21.87;;;;;;;1.44;76.99;100195.38;1636266;86;25877;-81
2021/01/28 00:02:54;;;;;;;50.25;21.25;;;;;;;1.46;76.92;100192.11;1622777;86;25848;-81
2021/01/28 00:05:24;;;;;;;49.18;21.57;;;;;;;1.46;76.80;100189.95;1640573;85;27523;-81
2021/01/28 00:07:52;;;;;;;41.23;18.77;;;;;;;1.46;76.83;100181.55;1661761;85;25865;-81
2021/01/28 00:10:20;;;;;;;47.93;19.95;;;;;;;1.45;76.77;100178.55;1619511;85;25848;-80
2021/01/28 00:12:47;;;;;;;49.80;21.33;;;;;;;1.44;76.81;100179.55;1586922;88;26145;-80
2021/01/28 00:15:22;;;;;;;46.53;20.60;;;;;;;1.46;76.78;100173.64;1649331;86;25426;-80
2021/01/28 00:17:49;;;;;;;46.80;19.40;;;;;;;1.43;76.67;100181.81;1638606;86;27556;-81
2021/01/28 00:20:22;;;;;;;38.63;17.80;;;;;;;1.41;76.75;100175.84;1592140;86;25956;-81
2021/01/28 00:22:49;;;;;;;42.62;19.75;;;;;;;1.41;76.71;100177.17;1605821;88;25465;-81
2021/01/28 00:25:19;;;;;;;39.38;18.02;;;;;;;1.41;76.72;100182.45;1647037;86;25839;-81
2021/01/28 00:27:48;;;;;;;41.58;17.77;;;;;;;1.40;76.60;100182.59;1645622;86;25855;-81
2021/01/28 00:30:20;;;;;;;41.88;18.48;;;;;;;1.38;76.55;100184.06;1612579;86;27569;-81
2021/01/28 00:32:48;;;;;;;41.48;17.95;;;;;;;1.38;76.64;100181.90;1633532;85;25919;-81
2021/01/28 00:35:27;;;;;;;41.68;17.73;;;;;;;1.39;76.70;100182.27;1632098;86;26047;-81
2021/01/28 00:37:56;;;;;;;40.10;17.55;;;;;;;1.42;76.72;100181.97;1659493;86;25796;-81
2021/01/28 00:40:25;;;;;;;46.28;19.60;;;;;;;1.46;76.71;100180.72;1614790;86;25940;-82
2021/01/28 00:42:53;;;;;;;44.73;19.80;;;;;;;1.49;76.61;100179.13;1614749;86;27721;-80
2021/01/28 00:45:24;;;;;;;45.63;19.70;;;;;;;1.51;76.51;100181.14;1616418;86;25929;-81
2021/01/28 00:47:54;;;;;;;37.35;16.70;;;;;;;1.52;76.52;100173.08;1650909;85;25961;-81
2021/01/28 00:50:26;;;;;;;38.75;17.00;;;;;;;1.56;76.51;100169.69;1595401;85;26497;-82
2021/01/28 00:52:53;;;;;;;34.38;17.00;;;;;;;1.55;76.33;100163.57;1645743;85;26613;-81
2021/01/28 00:55:22;;;;;;;31.12;15.08;;;;;;;1.53;76.17;100161.56;1636342;85;27329;-81
2021/01/28 00:57:51;;;;;;;34.80;15.80;;;;;;;1.53;76.23;100160.24;1652989;85;25865;-81
2021/01/28 01:00:35;;;;;;;36.83;16.07;;;;;;;1.53;76.23;100154.96;1605440;86;26409;-80
2021/01/28 01:03:03;;;;;;;38.83;16.75;;;;;;;1.53;76.06;100154.12;1630501;86;25876;-81
2021/01/28 01:05:32;;;;;;;40.23;16.02;;;;;;;1.46;75.99;100156.97;1660685;85;25868;-81
2021/01/28 01:08:03;;;;;;;37.90;16.35;;;;;;;1.43;75.97;100159.90;1656015;85;26923;-81
2021/01/28 01:10:38;;;;;;;33.33;16.00;;;;;;;1.41;76.08;100157.38;1623194;85;26209;-81
2021/01/28 01:13:08;;;;;;;34.10;15.20;;;;;;;1.38;76.07;100156.84;1659710;85;25891;-81
2021/01/28 01:15:36;;;;;;;38.20;17.57;;;;;;;1.39;76.18;100156.69;1614039;85;26873;-82
2021/01/28 01:18:06;;;;;;;44.90;18.85;;;;;;;1.39;76.20;100150.09;1624634;85;25409;-81
2021/01/28 01:20:35;;;;;;;35.10;16.25;;;;;;;1.40;76.03;100149.61;1610845;85;27649;-81
2021/01/28 01:23:04;;;;;;;38.08;16.37;;;;;;;1.37;75.95;100151.20;1625080;86;26286;-81
2021/01/28 01:25:33;;;;;;;30.43;15.58;;;;;;;1.36;75.99;100142.95;1617991;87;26565;-81
2021/01/28 01:28:01;;;;;;;37.35;17.20;;;;;;;1.33;75.97;100132.18;1643742;86;26530;-82
2021/01/28 01:30:47;;;;;;;39.13;19.17;;;;;;;1.38;75.96;100135.25;1822910;77;27854;-80
2021/01/28 01:33:14;;;;;;;32.70;16.17;;;;;;;1.52;75.40;100132.16;1766073;79;26523;-80
2021/01/28 01:35:43;;;;;;;31.93;14.18;;;;;;;1.47;75.71;100133.58;1787041;79;27601;-80
2021/01/28 01:38:12;;;;;;;31.62;13.70;;;;;;;1.43;75.55;100134.83;1714034;81;25954;-81
2021/01/28 01:40:53;;;;;;;27.93;13.05;;;;;;;1.35;75.48;100142.59;1696652;82;25381;-81
2021/01/28 01:43:20;;;;;;;33.60;14.75;;;;;;;1.30;75.63;100144.34;1725914;81;25814;-81
2021/01/28 01:45:57;;;;;;;29.23;14.53;;;;;;;1.32;75.86;100138.92;1742123;81;26137;-81
2021/01/28 01:48:48;;;;;;;26.60;12.98;;;;;;;1.30;75.81;100132.48;1717565;82;27709;-82
2021/01/28 01:51:24;;;;;;;30.40;14.55;;;;;;;1.28;75.77;100129.63;1747445;81;26122;-80
2021/01/28 01:54:10;;;;;;;28.92;13.10;;;;;;;1.27;75.69;100122.67;1732905;81;25835;-81
2021/01/28 01:56:50;;;;;;;33.20;14.83;;;;;;;1.24;75.74;100121.65;1721814;82;25854;-81
2021/01/28 01:59:29;;;;;;;37.10;16.65;;;;;;;1.24;75.78;100113.22;1746558;80;25399;-80
2021/01/28 02:02:13;;;;;;;33.55;14.00;;;;;;;1.28;75.74;100107.20;1802736;77;25784;-83
2021/01/28 02:05:07;;;;;;;28.83;14.93;;;;;;;1.21;75.70;100116.16;1765490;79;26036;-80
2021/01/28 02:07:44;;;;;;;31.70;14.90;;;;;;;1.23;75.67;100113.38;1756109;79;25704;-81
2021/01/28 02:10:28;;;;;;;38.42;17.00;;;;;;;1.17;75.73;100111.30;1696799;83;25857;-80
2021/01/28 02:13:24;;;;;;;33.30;17.67;;;;;;;1.22;75.72;100099.34;1874389;74;25798;-80
2021/01/28 02:15:53;;;;;;;;;;;;;;;1.20;75.86;100099.97;1814117;77;25800;-80
2021/01/28 02:18:22;;;;;;;31.65;14.85;;;;;;;1.20;75.69;100103.08;1794176;77;28504;-81
2021/01/28 02:21:20;;;;;;;36.85;17.73;;;;;;;1.21;75.62;100088.45;1840400;77;25341;-80
2021/01/28 02:24:28;;;;;;;32.60;17.45;;;;;;;1.13;75.56;100082.22;1771488;79;26488;-81
2021/01/28 02:26:57;;;;;;;38.25;18.37;;;;;;;1.12;75.63;100081.85;1798249;78;27606;-81
2021/01/28 02:29:37;;;;;;;39.48;18.17;;;;;;;1.17;75.64;100075.69;1843885;77;25693;-82
2021/01/28 02:32:05;;;;;;;34.00;17.82;;;;;;;1.16;75.68;100077.48;1768813;79;25711;-81
2021/01/28 02:34:35;;;;;;;32.33;16.93;;;;;;;1.21;75.67;100078.38;1791930;79;27530;-81
2021/01/28 02:37:20;;;;;;;38.63;18.98;;;;;;;1.24;75.33;100075.48;1808195;78;25381;-80
2021/01/28 02:40:03;;;;;;;36.15;17.30;;;;;;;1.18;75.45;100073.38;1713781;81;25860;-82
2021/01/28 02:42:46;;;;;;;42.00;18.32;;;;;;;1.22;75.29;100066.88;1821091;77;25712;-81
2021/01/28 02:45:26;;;;;;;34.40;18.32;;;;;;;1.14;75.39;100070.20;1697602;82;25817;-81
2021/01/28 02:48:06;;;;;;;36.25;17.17;;;;;;;1.13;75.17;100063.75;1693540;83;27529;-81
2021/01/28 02:50:44;;;;;;;39.00;21.60;;;;;;;1.11;75.19;100062.55;1779277;79;31300;-81
2021/01/28 02:53:12;;;;;;;38.50;21.15;;;;;;;1.25;74.94;100059.98;1718334;80;28078;-80
2021/01/28 02:55:41;;;;;;;30.17;17.30;;;;;;;1.47;74.35;100061.00;1758838;80;27509;-81
2021/01/28 02:58:09;;;;;;;34.40;18.30;;;;;;;1.35;74.57;100054.20;1739637;80;25967;-81
2021/01/28 03:00:38;;;;;;;37.90;17.10;;;;;;;1.31;74.69;100052.81;1726591;80;26499;-80
2021/01/28 03:03:08;;;;;;;34.48;15.93;;;;;;;1.26;74.65;100047.16;1715745;81;26128;-80
2021/01/28 03:05:45;;;;;;;33.78;18.12;;;;;;;1.28;74.60;100049.16;1801817;77;25655;-82
2021/01/28 03:08:13;;;;;;;33.75;16.82;;;;;;;1.15;74.49;100046.81;1720539;80;25750;-80
2021/01/28 03:10:43;;;;;;;34.85;17.62;;;;;;;1.11;74.70;100053.31;1734502;80;27606;-80
2021/01/28 03:13:13;;;;;;;31.82;16.25;;;;;;;1.10;74.62;100050.34;1728239;80;25866;-81
2021/01/28 03:15:50;;;;;;;35.08;16.32;;;;;;;1.09;74.54;100048.67;1798135;77;26326;-82
2021/01/28 03:18:19;;;;;;;39.08;17.82;;;;;;;1.00;74.57;100050.02;1732340;82;25866;-81
2021/01/28 03:20:47;;;;;;;47.55;19.87;;;;;;;0.99;74.77;100046.53;1761621;80;27593;-81
2021/01/28 03:23:19;;;;;;;42.53;19.60;;;;;;;0.99;74.76;100047.02;1690561;80;25885;-81
2021/01/28 03:26:02;;;;;;;42.25;17.82;;;;;;;1.01;74.86;100041.95;1838340;77;25950;-81
2021/01/28 03:28:30;;;;;;;32.75;17.32;;;;;;;0.97;74.90;100041.89;1775469;79;25812;-81
2021/01/28 03:30:59;;;;;;;37.03;16.80;;;;;;;0.96;74.91;100040.72;1797565;79;28305;-80
2021/01/28 03:33:26;;;;;;;33.02;16.25;;;;;;;0.96;75.02;100035.45;1769225;79;26429;-81
2021/01/28 03:35:54;;;;;;;36.35;16.27;;;;;;;0.96;75.13;100036.28;1736675;81;25925;-82
2021/01/28 03:38:22;;;;;;;28.27;15.15;;;;;;;0.93;75.22;100026.00;1724813;82;25753;-80
2021/01/28 03:40:52;;;;;;;33.10;14.45;;;;;;;0.91;75.09;100026.63;1743184;81;25931;-80
2021/01/28 03:43:21;;;;;;;24.98;14.20;;;;;;;0.91;75.20;100021.36;1691505;82;26825;-80
2021/01/28 03:45:49;;;;;;;28.27;14.00;;;;;;;0.92;75.22;100021.69;1682716;82;25843;-81
2021/01/28 03:48:16;;;;;;;26.48;13.15;;;;;;;0.93;75.12;100022.52;1706545;82;26234;-80
2021/01/28 03:50:45;;;;;;;28.27;14.68;;;;;;;0.92;74.96;100024.32;1717299;82;26388;-80
2021/01/28 03:53:22;;;;;;;27.87;14.40;;;;;;;0.97;75.08;100023.91;1844298;77;25764;-81
2021/01/28 03:55:58;;;;;;;31.07;14.63;;;;;;;0.92;75.17;100020.37;1760675;80;25818;-81
2021/01/28 03:58:27;;;;;;;30.52;14.25;;;;;;;0.93;75.10;100014.14;1773914;80;27534;-81
2021/01/28 04:01:06;;;;;;;31.48;14.15;;;;;;;1.01;75.04;100014.74;1840170;77;25800;-83
2021/01/28 04:03:35;;;;;;;34.58;15.08;;;;;;;0.99;75.01;100014.89;1764048;80;25829;-79
2021/01/28 04:06:22;;;;;;;32.00;16.00;;;;;;;0.98;74.94;100005.33;1759420;80;28592;-80
2021/01/28 04:09:00;;;;;;;30.68;14.65;;;;;;;1.01;74.98;100003.72;1898297;74;26302;-80
2021/01/28 04:11:29;;;;;;;28.15;13.53;;;;;;;0.97;75.03;99996.22;1807860;75;26620;-80
2021/01/28 04:13:57;;;;;;;27.85;13.58;;;;;;;0.97;74.94;99993.11;1846866;75;28490;-81
2021/01/28 04:16:25;;;;;;;29.65;13.88;;;;;;;0.97;74.81;99992.27;1784002;77;25784;-81
2021/01/28 04:18:53;;;;;;;28.38;12.85;;;;;;;0.94;74.73;99989.42;1784070;77;25787;-80
2021/01/28 04:21:37;;;;;;;17.98;9.30;;;;;;;0.92;74.77;99986.09;1735536;80;26616;-80
2021/01/28 04:24:07;;;;;;;18.65;9.23;;;;;;;0.93;74.26;99989.09;1729269;81;25755;-80
2021/01/28 04:26:48;;;;;;;15.65;8.90;;;;;;;0.95;74.08;99987.14;1690392;83;28447;-80
2021/01/28 04:29:16;;;;;;;18.55;9.53;;;;;;;0.96;74.10;99985.34;1724894;82;26147;-81
2021/01/28 04:31:46;;;;;;;17.25;9.73;;;;;;;0.98;74.17;99986.03;1753283;79;25779;-80
2021/01/28 04:34:18;;;;;;;20.72;10.85;;;;;;;0.97;74.33;99977.77;1781543;79;26385;-81
2021/01/28 04:36:46;;;;;;;21.48;10.58;;;;;;;1.02;74.50;99971.59;1753478;80;26302;-81
2021/01/28 04:39:23;;;;;;;20.43;10.32;;;;;;;1.09;74.43;99965.59;1840902;77;25283;-81
2021/01/28 04:41:53;;;;;;;17.77;9.60;;;;;;;1.06;74.43;99954.51;1738061;80;25806;-81
2021/01/28 04:44:20;;;;;;;22.10;10.10;;;;;;;1.04;74.21;99955.14;1740964;81;28485;-81
2021/01/28 04:47:14;;;;;;;17.40;10.43;;;;;;;1.09;74.26;99945.01;1830363;77;32387;-81
2021/01/28 04:49:55;;;;;;;21.48;10.03;;;;;;;1.25;73.86;99943.91;1778862;78;25955;-80
2021/01/28 04:52:36;;;;;;;20.17;9.45;;;;;;;1.19;73.61;99941.37;1799806;78;28847;-81
2021/01/28 04:55:30;;;;;;;12.28;7.97;;;;;;;1.23;73.60;99933.99;1819375;77;25904;-81
2021/01/28 04:57:58;;;;;;;13.68;7.30;;;;;;;1.15;73.69;99932.56;1723498;82;26568;-80
2021/01/28 05:00:36;;;;;;;14.73;6.47;;;;;;;1.21;73.32;99929.34;1812673;77;25771;-80
2021/01/28 05:03:19;;;;;;;14.38;7.60;;;;;;;1.10;73.45;99926.39;1755447;79;25751;-81
2021/01/28 05:05:59;;;;;;;19.62;8.45;;;;;;;1.10;73.66;99918.96;1747687;80;27603;-81
2021/01/28 05:08:36;;;;;;;18.60;9.65;;;;;;;1.17;73.43;99917.42;1822449;77;25625;-80
2021/01/28 05:11:29;;;;;;;21.62;11.38;;;;;;;1.09;73.33;99914.68;1761986;80;25763;-81
2021/01/28 05:14:21;;;;;;;24.00;10.85;;;;;;;1.13;73.27;99910.78;1836129;77;25279;-79
2021/01/28 05:16:58;;;;;;;25.68;11.55;;;;;;;1.05;73.45;99905.39;1772942;78;25920;-80
2021/01/28 05:19:40;;;;;;;23.00;11.28;;;;;;;1.11;73.51;99900.34;1797202;79;25732;-81
2021/01/28 05:22:33;;;;;;;21.10;9.93;;;;;;;1.08;73.43;99898.50;1743724;80;25442;-82
2021/01/28 05:25:30;;;;;;;16.37;10.13;;;;;;;1.14;73.50;99888.20;1840731;77;25291;-80
2021/01/28 05:27:59;;;;;;;15.13;9.53;;;;;;;1.08;73.24;99883.99;1728270;81;26010;-81
2021/01/28 05:30:40;;;;;;;17.55;9.85;;;;;;;1.05;72.96;99889.57;1742977;80;27523;-81
2021/01/28 05:33:38;;;;;;;20.62;9.40;;;;;;;1.05;73.04;99889.57;1739692;80;26194;-81
2021/01/28 05:36:25;;;;;;;19.20;9.80;;;;;;;1.04;73.11;99879.50;1722132;80;25819;-80
2021/01/28 05:39:31;;;;;;;21.90;10.00;;;;;;;1.10;73.18;99878.08;1837993;77;25732;-81
2021/01/28 05:42:29;;;;;;;21.25;10.38;;;;;;;1.01;73.04;99877.14;1792489;78;25836;-81
2021/01/28 05:44:58;;;;;;;20.75;10.53;;;;;;;1.00;73.07;99875.97;1795387;78;27608;-81
2021/01/28 05:47:33;;;;;;;20.02;9.65;;;;;;;0.98;73.04;99874.81;1780722;78;25792;-81
2021/01/28 05:50:29;;;;;;;23.18;11.40;;;;;;;1.02;72.88;99871.38;1790584;79;26271;-81
2021/01/28 05:53:13;;;;;;;19.48;10.20;;;;;;;0.97;73.05;99870.97;1732828;81;25958;-81
2021/01/28 05:55:43;;;;;;;19.30;10.50;;;;;;;0.99;73.10;99867.70;1748920;80;28483;-81
2021/01/28 05:58:49;;;;;;;24.30;11.55;;;;;;;1.04;73.11;99863.68;1841043;77;25636;-80
2021/01/28 06:01:44;;;;;;;25.55;11.60;;;;;;;0.99;73.23;99865.06;1789493;78;25430;-81
2021/01/28 06:04:54;;;;;;;19.82;11.05;;;;;;;1.01;73.07;99860.48;1792728;79;25778;-80
2021/01/28 06:07:55;;;;;;;22.30;12.50;;;;;;;0.94;73.22;99859.41;1739836;80;25841;-80
2021/01/28 06:10:50;;;;;;;26.15;11.50;;;;;;;0.91;73.18;99863.16;1745193;80;28531;-82
2021/01/28 06:13:39;;;;;;;24.37;10.28;;;;;;;0.91;73.14;99855.25;1775412;80;25844;-79
2021/01/28 06:17:00;;;;;;;19.30;10.65;;;;;;;0.96;72.94;99851.71;1829460;77;26018;-80
2021/01/28 06:20:03;;;;;;;19.67;9.88;;;;;;;0.88;72.94;99859.48;1684473;82;26447;-82
2021/01/28 06:22:45;;;;;;;31.73;15.80;;;;;;;0.85;72.83;99847.09;1672150;84;27628;-81
2021/01/28 06:25:41;;;;;;;35.88;16.05;;;;;;;0.77;72.70;99852.58;1731178;79;26170;-81
2021/01/28 06:28:20;;;;;;;38.60;17.87;;;;;;;0.71;72.55;99845.72;1767408;79;26567;-81
2021/01/28 06:31:17;;;;;;;54.77;25.77;;;;;;;0.65;72.56;99841.87;1727183;82;26560;-81
2021/01/28 06:34:42;;;;;;;37.93;21.35;;;;;;;0.62;72.58;99838.19;1750900;81;25699;-82
2021/01/28 06:37:28;;;;;;;25.20;11.93;;;;;;;0.59;72.58;99838.48;1761738;79;28100;-80
2021/01/28 06:40:22;;;;;;;20.82;12.30;;;;;;;0.55;72.56;99828.37;1730249;81;26710;-81
2021/01/28 06:43:15;;;;;;;26.90;12.03;;;;;;;0.54;72.65;99824.89;1771970;80;25915;-81
2021/01/28 06:46:17;;;;;;;22.87;10.65;;;;;;;0.55;72.65;99823.09;1752428;81;26200;-79
2021/01/28 06:48:48;;;;;;;33.38;13.05;;;;;;;0.53;72.82;99811.88;1753526;79;25737;-80
2021/01/28 06:51:34;;;;;;;24.40;11.50;;;;;;;0.59;72.39;99806.03;1838646;77;25753;-81
2021/01/28 06:54:19;;;;;;;26.02;10.68;;;;;;;0.52;72.24;99802.30;1798630;78;26602;-80
2021/01/28 06:57:20;;;;;;;24.50;13.08;;;;;;;0.48;72.20;99799.59;1735170;80;27602;-79
2021/01/28 07:00:40;;;;;;;23.87;11.78;;;;;;;0.52;72.31;99791.75;1799678;79;25644;-80
2021/01/28 07:03:44;;;;;;;21.02;10.75;;;;;;;0.45;72.23;99792.00;1745211;80;26368;-80
2021/01/28 07:06:41;;;;;;;20.10;12.23;;;;;;;0.42;72.34;99792.27;1759235;80;26710;-80
2021/01/28 07:09:24;;;;;;;24.65;11.22;;;;;;;0.42;72.38;99789.64;1746315;81;25755;-79
2021/01/28 07:12:01;;;;;;;21.33;10.18;;;;;;;0.42;72.40;99787.00;1720272;81;25902;-80
2021/01/28 07:14:38;;;;;;;20.68;10.30;;;;;;;0.42;72.31;99770.72;1698711;81;25809;-80
2021/01/28 07:17:17;;;;;;;;;;;;;;;0.41;72.42;99763.77;1753875;81;25773;-81
2021/01/28 07:20:05;;;;;;;23.47;10.98;;;;;;;0.43;72.37;99761.83;1748872;81;26937;-80
2021/01/28 07:22:41;;;;;;;23.57;10.47;;;;;;;0.42;72.36;99754.07;1746285;81;25902;-79
2021/01/28 07:25:33;;;;;;;19.02;10.20;;;;;;;0.42;72.17;99744.85;1739268;81;25966;-80
2021/01/28 07:28:20;;;;;;;21.55;12.63;;;;;;;0.44;72.21;99741.59;1745176;81;25863;-81
2021/01/28 07:31:23;;;;;;;17.57;9.98;;;;;;;0.45;72.17;99744.06;1740064;80;26587;-79
2021/01/28 07:34:05;;;;;;;18.32;9.43;;;;;;;0.47;72.03;99740.00;1738209;81;27602;-79
2021/01/28 07:36:49;;;;;;;20.23;9.98;;;;;;;0.46;72.03;99729.94;1723646;81;25549;-80
2021/01/28 07:39:38;;;;;;;23.47;11.30;;;;;;;0.47;72.03;99719.73;1746842;81;25760;-79
2021/01/28 07:42:31;;;;;;;23.20;11.20;;;;;;;0.52;71.75;99713.55;1794477;79;25771;-80
2021/01/28 07:45:35;;;;;;;26.62;11.68;;;;;;;0.48;71.82;99712.18;1737536;80;25810;-80
2021/01/28 07:48:31;;;;;;;19.25;10.72;;;;;;;0.51;71.92;99711.87;1754965;80;27986;-80
2021/01/28 07:51:36;;;;;;;20.48;10.50;;;;;;;0.55;71.77;99696.63;1648377;84;25833;-80
2021/01/28 07:54:24;;;;;;;17.65;11.03;;;;;;;0.63;71.66;99704.15;1670592;85;25839;-82
2021/01/28 07:57:11;;;;;;;20.43;9.25;;;;;;;0.70;71.63;99714.45;1684315;84;25796;-79
2021/01/28 08:00:00;;;;;;;28.42;12.35;;;;;;;0.77;71.46;99709.41;1696747;83;26219;-79
2021/01/28 08:02:32;;;;;;;18.15;10.38;;;;;;;0.83;71.53;99707.53;1662749;83;27804;-80
2021/01/28 08:05:14;;;;;;;17.20;9.25;;;;;;;0.90;71.41;99705.14;1697004;83;25951;-80
2021/01/28 08:07:45;;;;;;;27.50;13.10;;;;;;;0.96;71.43;99703.22;1668855;85;25945;-80
2021/01/28 08:10:36;;;;;;;24.75;11.20;;;;;;;0.98;71.05;99699.95;1698349;84;25957;-81
2021/01/28 08:13:21;;;;;;;21.97;13.10;;;;;;;0.99;70.93;99701.59;1674073;83;26464;-80
2021/01/28 08:16:06;;;;;;;21.77;10.68;;;;;;;1.01;71.12;99699.16;1677604;83;27498;-82
2021/01/28 08:18:42;;;;;;;24.05;11.50;;;;;;;1.08;71.30;99700.70;1701990;83;25865;-80
2021/01/28 08:21:22;;;;;;;27.48;13.10;;;;;;;1.12;71.21;99703.39;1661894;83;26495;-80
2021/01/28 08:23:51;;;;;;;35.45;16.85;;;;;;;1.14;71.24;99704.06;1659639;83;25939;-80
2021/01/28 08:26:32;;;;;;;47.85;21.27;;;;;;;1.18;71.23;99702.30;1654158;83;25954;-81
2021/01/28 08:29:19;;;;;;;56.95;28.10;;;;;;;1.22;71.25;99695.75;1711054;82;27217;-80
2021/01/28 08:31:53;;;;;;;50.08;25.20;;;;;;;1.27;71.06;99689.55;1705535;83;25913;-80
2021/01/28 08:34:28;;;;;;;38.60;20.43;;;;;;;1.31;71.09;99692.70;1651260;83;25905;-80
2021/01/28 08:37:02;;;;;;;32.33;15.72;;;;;;;1.36;71.06;99688.66;1689883;84;26104;-81
2021/01/28 08:39:36;;;;;;;37.95;20.00;;;;;;;1.40;70.52;99679.45;1675714;83;25964;-82
2021/01/28 08:42:15;;;;;;;36.40;17.10;;;;;;;1.41;70.83;99683.73;1662765;83;27619;-80
2021/01/28 08:44:46;;;;;;;29.82;15.40;;;;;;;1.45;70.96;99690.88;1657569;84;25856;-80
2021/01/28 08:47:22;;;;;;;27.20;14.55;;;;;;;1.48;70.98;99688.75;1659447;84;25996;-81
2021/01/28 08:50:07;;;;;;;36.23;17.57;;;;;;;1.53;71.09;99685.67;1684980;84;26019;-80
2021/01/28 08:52:36;;;;;;;38.25;19.95;;;;;;;1.56;70.97;99684.06;1683088;84;26416;-81
2021/01/28 08:55:22;;;;;;;46.18;22.17;;;;;;;1.54;70.63;99680.71;1652162;83;29074;-81
2021/01/28 08:57:51;;;;;;;25.08;14.25;;;;;;;1.58;70.96;99672.86;1715958;83;25763;-81
2021/01/28 09:00:22;;;;;;;45.30;26.77;;;;;;;1.60;70.28;99671.38;1653627;83;25816;-80
2021/01/28 09:02:52;;;;;;;;;;;;;;;1.60;70.42;99659.02;1687974;83;25898;-84
2021/01/28 09:05:30;;;;;;;40.75;24.40;;;;;;;1.66;70.49;99658.88;1712042;82;26207;-85
2021/01/28 09:08:08;;;;;;;29.92;16.87;;;;;;;1.68;70.59;99647.20;1679678;83;27622;-82
2021/01/28 09:10:41;;;;;;;30.75;16.85;;;;;;;1.73;70.18;99639.66;1695224;82;25957;-80
2021/01/28 09:13:31;;;;;;;29.27;16.17;;;;;;;1.74;69.98;99640.46;1702139;82;25904;-81
2021/01/28 09:16:15;;;;;;;56.58;35.70;;;;;;;1.77;70.04;99627.80;1646349;84;25795;-80
2021/01/28 09:18:46;;;;;;;32.88;18.42;;;;;;;1.80;69.93;99616.91;1670208;84;25749;-83
2021/01/28 09:21:20;;;;;;;30.88;16.67;;;;;;;1.83;69.37;99612.66;1688951;82;28300;-79
2021/01/28 09:24:21;;;;;;;28.10;15.50;;;;;;;1.85;69.50;99612.48;1686884;82;25807;-83
2021/01/28 09:26:52;;;;;;;34.70;18.37;;;;;;;1.86;69.25;99618.13;1659369;85;25875;-83
2021/01/28 09:29:24;;;;;;;27.48;14.15;;;;;;;1.90;69.75;99612.37;1661795;84;26008;-80
2021/01/28 09:31:52;;;;;;;24.30;13.68;;;;;;;1.96;69.60;99609.59;1694701;83;26029;-84
2021/01/28 09:34:31;;;;;;;31.82;15.75;;;;;;;2.01;69.72;99609.97;1636319;84;28280;-83
2021/01/28 09:37:06;;;;;;;27.73;15.03;;;;;;;2.05;69.01;99606.02;1673133;83;25420;-79
2021/01/28 09:39:54;;;;;;;27.82;14.18;;;;;;;2.06;69.17;99601.06;1658283;84;25864;-82
2021/01/28 09:42:31;;;;;;;24.30;13.50;;;;;;;2.07;68.82;99602.73;1692126;84;26514;-82
2021/01/28 09:45:23;;;;;;;25.82;14.07;;;;;;;2.08;68.40;99599.09;1664754;85;25771;-81
2021/01/28 09:47:54;;;;;;;31.80;15.58;;;;;;;2.06;68.44;99594.45;1690775;84;26768;-81
2021/01/28 09:50:23;;;;;;;27.90;14.40;;;;;;;2.07;68.75;99586.41;1666054;84;26491;-80
2021/01/28 09:52:51;;;;;;;30.68;16.12;;;;;;;2.07;68.40;99582.44;1668246;84;25402;-83
2021/01/28 09:55:23;;;;;;;39.65;21.65;;;;;;;2.07;68.10;99571.04;1665397;84;25880;-80
2021/01/28 09:57:51;;;;;;;29.42;15.40;;;;;;;2.07;68.39;99561.80;1697977;84;25689;-82
2021/01/28 10:00:21;;;;;;;31.55;14.40;;;;;;;2.08;68.27;99554.19;1642708;84;27834;-79
2021/01/28 10:02:56;;;;;;;27.50;13.98;;;;;;;2.06;68.03;99541.64;1695457;84;26004;-81
2021/01/28 10:05:27;;;;;;;27.85;13.10;;;;;;;2.03;67.74;99539.33;1670715;84;25857;-81
2021/01/28 10:07:56;;;;;;;26.50;12.95;;;;;;;1.99;67.75;99526.91;1666766;84;25948;-80
2021/01/28 10:10:30;;;;;;;28.87;13.25;;;;;;;1.96;67.62;99528.56;1652381;84;26212;-81
2021/01/28 10:13:02;;;;;;;27.90;14.98;;;;;;;1.94;68.01;99531.86;1696987;82;27428;-79
2021/01/28 10:15:30;;;;;;;25.52;13.75;;;;;;;1.95;67.86;99522.94;1669353;82;25879;-81
2021/01/28 10:17:59;;;;;;;32.50;15.38;;;;;;;1.96;67.71;99522.45;1668815;83;25810;-80
2021/01/28 10:20:26;;;;;;;28.17;13.88;;;;;;;1.93;67.83;99515.67;1682281;84;25907;-78
2021/01/28 10:22:59;;;;;;;28.77;14.50;;;;;;;1.94;67.64;99510.73;1690662;84;25966;-80
2021/01/28 10:25:26;;;;;;;29.77;13.78;;;;;;;1.95;67.56;99500.98;1686492;83;27538;-83
2021/01/28 10:27:54;;;;;;;25.95;13.43;;;;;;;1.92;67.57;99509.23;1652943;83;25807;-83
2021/01/28 10:30:25;;;;;;;30.25;14.83;;;;;;;1.91;67.49;99499.64;1700413;83;25953;-82
2021/01/28 10:32:53;;;;;;;29.72;14.60;;;;;;;1.90;67.68;99498.84;1693197;83;25809;-80
2021/01/28 10:35:25;;;;;;;29.63;14.70;;;;;;;1.90;67.83;99489.59;1668677;83;25799;-81
2021/01/28 10:37:54;;;;;;;28.87;15.13;;;;;;;1.94;67.73;99480.85;1698742;84;28479;-78
2021/01/28 10:40:23;;;;;;;28.45;14.98;;;;;;;1.96;67.95;99478.88;1673656;84;25759;-77
2021/01/28 10:42:57;;;;;;;33.98;14.90;;;;;;;2.01;67.87;99477.40;1668585;85;26032;-78
2021/01/28 10:45:35;;;;;;;32.63;14.78;;;;;;;2.05;68.05;99468.17;1674181;84;25836;-79
2021/01/28 10:48:04;;;;;;;34.58;17.73;;;;;;;2.10;68.18;99463.73;1673699;84;25830;-78
2021/01/28 10:50:34;;;;;;;30.95;16.00;;;;;;;2.14;67.69;99459.77;1693394;83;27601;-78
2021/01/28 10:53:03;;;;;;;29.70;15.70;;;;;;;2.16;67.86;99453.87;1677666;84;25839;-81
2021/01/28 10:55:33;;;;;;;31.75;15.58;;;;;;;2.18;68.01;99448.73;1675780;84;26349;-81
2021/01/28 10:58:00;;;;;;;41.08;15.18;;;;;;;2.20;67.72;99444.11;1682554;84;25877;-80
2021/01/28 11:00:30;;;;;;;32.93;15.95;;;;;;;2.20;67.66;99448.07;1681986;84;25905;-81
2021/01/28 11:02:58;;;;;;;32.63;15.50;;;;;;;2.21;67.96;99444.94;1695992;83;27345;-80
2021/01/28 11:05:30;;;;;;;34.40;15.40;;;;;;;2.18;67.95;99449.25;1663749;84;25897;-81
2021/01/28 11:07:58;;;;;;;30.62;15.45;;;;;;;2.15;68.54;99438.99;1697119;83;26425;-81
2021/01/28 11:10:27;;;;;;;26.75;15.35;;;;;;;2.11;68.78;99441.62;1687754;83;26502;-80
2021/01/28 11:12:57;;;;;;;27.42;14.28;;;;;;;2.03;69.23;99432.37;1693276;83;25804;-80
2021/01/28 11:15:28;;;;;;;30.92;18.15;;;;;;;1.95;69.76;99420.44;1686085;83;27700;-80
2021/01/28 11:17:55;;;;;;;36.35;17.00;;;;;;;1.84;70.21;99419.44;1673135;83;25783;-80
2021/01/28 11:20:23;;;;;;;28.73;17.37;;;;;;;1.75;70.82;99413.30;1671436;84;25602;-80
2021/01/28 11:22:50;;;;;;;33.18;17.50;;;;;;;1.66;71.33;99403.69;1688688;83;25353;-80
2021/01/28 11:25:23;;;;;;;38.13;19.17;;;;;;;1.59;71.60;99407.94;1651981;84;25798;-80
2021/01/28 11:27:50;;;;;;;39.88;18.42;;;;;;;1.57;72.19;99394.08;1669516;84;27643;-80
2021/01/28 11:30:22;;;;;;;33.33;15.72;;;;;;;1.54;72.42;99373.27;1660656;83;26142;-81
2021/01/28 11:32:50;;;;;;;32.25;17.90;;;;;;;1.53;72.50;99372.47;1675676;83;25902;-80
2021/01/28 11:35:22;;;;;;;36.63;17.42;;;;;;;1.52;72.99;99362.89;1666737;84;26326;-81
2021/01/28 11:37:50;;;;;;;29.57;17.15;;;;;;;1.55;73.16;99367.02;1674389;84;25698;-81
2021/01/28 11:40:22;;;;;;;32.10;17.75;;;;;;;1.53;73.36;99357.95;1672509;82;27617;-79
2021/01/28 11:42:49;;;;;;;37.08;17.57;;;;;;;1.53;73.41;99347.41;1702876;82;25428;-82
2021/01/28 11:45:24;;;;;;;37.55;20.32;;;;;;;1.54;73.75;99340.28;1666988;84;26749;-80
2021/01/28 11:47:51;;;;;;;36.48;20.08;;;;;;;1.51;73.86;99322.98;1692051;82;26168;-80
2021/01/28 11:50:21;;;;;;;41.73;19.02;;;;;;;1.52;74.15;99310.59;1667809;84;25808;-80
2021/01/28 11:52:50;;;;;;;36.33;19.32;;;;;;;1.54;74.37;99303.34;1663142;84;26345;-80
2021/01/28 11:55:22;;;;;;;32.08;17.35;;;;;;;1.55;74.57;99302.38;1663288;84;26259;-80
2021/01/28 11:57:49;;;;;;;32.73;17.35;;;;;;;1.55;74.60;99308.97;1667047;84;26028;-81
2021/01/28 12:00:18;;;;;;;37.95;18.95;;;;;;;1.54;74.48;99300.70;1645183;84;26800;-83
2021/01/28 12:02:46;;;;;;;36.63;18.77;;;;;;;1.58;74.65;99295.95;1673117;84;26204;-81
2021/01/28 12:05:18;;;;;;;36.88;18.87;;;;;;;1.59;74.67;99297.10;1645875;84;27286;-84
2021/01/28 12:07:45;;;;;;;36.85;19.20;;;;;;;1.58;74.62;99290.67;1671460;84;25812;-82
2021/01/28 12:10:16;;;;;;;37.33;20.37;;;;;;;1.56;74.82;99283.73;1667200;83;25822;-82